createdAt,value
2022-10-15T00:01:45.780Z,11.67
2022-10-15T00:04:13.991Z,11.64
2022-10-15T00:06:42.381Z,11.62
2022-10-15T00:09:10.693Z,11.59
2022-10-15T00:11:40.528Z,11.57
2022-10-15T00:14:08.742Z,11.57
2022-10-15T00:16:37.014Z,11.58
2022-10-15T00:19:05.641Z,11.58
2022-10-15T00:21:33.934Z,11.59
2022-10-15T00:24:02.138Z,11.60
2022-10-15T00:26:31.190Z,11.61
2022-10-15T00:29:02.854Z,11.63
2022-10-15T00:31:32.599Z,11.64
2022-10-15T00:34:03.010Z,11.65
2022-10-15T00:36:36.834Z,11.65
2022-10-15T00:39:08.048Z,11.66
2022-10-15T00:41:44.644Z,11.68
2022-10-15T00:44:21.798Z,11.70
2022-10-15T00:46:53.363Z,11.71
2022-10-15T00:49:33.927Z,11.72
2022-10-15T00:52:16.430Z,11.72
2022-10-15T00:54:49.938Z,11.72
2022-10-15T00:57:19.839Z,11.72
2022-10-15T00:59:52.923Z,11.73
2022-10-15T01:02:22.284Z,11.73
2022-10-15T01:04:51.965Z,11.74
2022-10-15T01:07:20.129Z,11.74
2022-10-15T01:09:48.497Z,11.73
2022-10-15T01:12:31.212Z,11.73
2022-10-15T01:15:05.261Z,11.74
2022-10-15T01:17:50.692Z,11.75
2022-10-15T01:21:08.344Z,11.75
2022-10-15T01:24:15.702Z,11.75
2022-10-15T01:27:03.597Z,11.75
2022-10-15T01:29:50.210Z,11.74
2022-10-15T01:32:34.906Z,11.74
2022-10-15T01:35:33.922Z,11.74
2022-10-15T01:38:30.023Z,11.74
2022-10-15T01:41:20.594Z,11.75
2022-10-15T01:44:10.043Z,11.75
2022-10-15T01:47:05.361Z,11.75
2022-10-15T01:49:35.684Z,11.74
2022-10-15T01:52:14.776Z,11.72
2022-10-15T01:54:46.437Z,11.71
2022-10-15T01:57:18.179Z,11.70
2022-10-15T01:59:46.558Z,11.69
2022-10-15T02:02:16.701Z,11.68
2022-10-15T02:04:45.382Z,11.67
2022-10-15T02:07:18.523Z,11.67
2022-10-15T02:10:11.303Z,11.67
2022-10-15T02:12:58.064Z,11.67
2022-10-15T02:16:28.189Z,11.66
2022-10-15T02:19:37.742Z,11.66
2022-10-15T02:22:14.366Z,11.66
2022-10-15T02:25:06.985Z,11.66
2022-10-15T02:27:37.556Z,11.66
2022-10-15T02:30:09.177Z,11.65
2022-10-15T02:32:41.166Z,11.65
2022-10-15T02:35:11.823Z,11.65
2022-10-15T02:37:48.155Z,11.65
2022-10-15T02:40:27.565Z,11.65
2022-10-15T02:42:56.394Z,11.65
2022-10-15T02:45:24.511Z,11.65
2022-10-15T02:47:52.715Z,11.65
2022-10-15T02:50:20.924Z,11.66
2022-10-15T02:52:49.297Z,11.66
2022-10-15T02:55:18.449Z,11.66
2022-10-15T02:57:46.701Z,11.65
2022-10-15T03:00:15.131Z,11.64
2022-10-15T03:02:43.312Z,11.64
2022-10-15T03:05:13.326Z,11.64
2022-10-15T03:07:41.670Z,11.63
2022-10-15T03:10:10.043Z,11.63
2022-10-15T03:12:38.367Z,11.62
2022-10-15T03:15:07.837Z,11.62
2022-10-15T03:17:36.709Z,11.61
2022-10-15T03:20:05.425Z,11.60
2022-10-15T03:22:35.203Z,11.59
2022-10-15T03:25:03.722Z,11.58
2022-10-15T03:27:31.962Z,11.55
2022-10-15T03:30:00.174Z,11.54
2022-10-15T03:32:32.989Z,11.53
2022-10-15T03:35:06.034Z,11.52
2022-10-15T03:37:34.802Z,11.52
2022-10-15T03:40:03.966Z,11.52
2022-10-15T03:42:33.163Z,11.50
2022-10-15T03:45:01.985Z,11.49
2022-10-15T03:47:30.675Z,11.49
2022-10-15T03:49:58.958Z,11.48
2022-10-15T03:52:27.249Z,11.47
2022-10-15T03:54:55.481Z,11.47
2022-10-15T03:57:23.763Z,11.48
2022-10-15T03:59:59.942Z,11.48
2022-10-15T04:02:31.759Z,11.48
2022-10-15T04:05:00.017Z,11.49
2022-10-15T04:07:28.328Z,11.49
2022-10-15T04:09:56.649Z,11.50
2022-10-15T04:12:28.669Z,11.50
2022-10-15T04:14:57.853Z,11.50
2022-10-15T04:17:26.069Z,11.50
2022-10-15T04:19:54.246Z,11.50
2022-10-15T04:22:23.273Z,11.50
2022-10-15T04:24:55.453Z,11.49
2022-10-15T04:27:28.913Z,11.48
2022-10-15T04:30:06.595Z,11.49
2022-10-15T04:32:34.988Z,11.48
2022-10-15T04:35:03.353Z,11.49
2022-10-15T04:38:03.862Z,11.49
2022-10-15T04:41:00.813Z,11.50
2022-10-15T04:43:36.138Z,11.51
2022-10-15T04:46:09.282Z,11.51
2022-10-15T04:48:42.210Z,11.51
2022-10-15T04:51:18.914Z,11.51
2022-10-15T04:54:05.689Z,11.49
2022-10-15T04:56:34.225Z,11.48
2022-10-15T04:59:02.420Z,11.47
2022-10-15T05:01:32.514Z,11.45
2022-10-15T05:04:12.663Z,11.44
2022-10-15T05:06:41.464Z,11.42
2022-10-15T05:09:17.502Z,11.41
2022-10-15T05:11:50.746Z,11.40
2022-10-15T05:14:18.971Z,11.39
2022-10-15T05:16:58.062Z,11.38
2022-10-15T05:19:27.618Z,11.37
2022-10-15T05:21:55.815Z,11.36
2022-10-15T05:24:25.939Z,11.35
2022-10-15T05:27:03.168Z,11.34
2022-10-15T05:29:33.782Z,11.34
2022-10-15T05:32:02.493Z,11.34
2022-10-15T05:34:30.863Z,11.33
2022-10-15T05:37:02.947Z,11.31
2022-10-15T05:39:33.252Z,11.30
2022-10-15T05:42:01.584Z,11.30
2022-10-15T05:44:53.507Z,11.28
2022-10-15T05:47:22.485Z,11.26
2022-10-15T05:49:51.558Z,11.25
2022-10-15T05:52:26.391Z,11.24
2022-10-15T05:55:20.945Z,11.21
2022-10-15T05:57:49.218Z,11.21
2022-10-15T06:00:17.581Z,11.20
2022-10-15T06:02:49.923Z,11.20
2022-10-15T06:05:18.219Z,11.21
2022-10-15T06:07:46.414Z,11.23
2022-10-15T06:10:14.810Z,11.25
2022-10-15T06:12:44.541Z,11.27
2022-10-15T06:15:12.939Z,11.27
2022-10-15T06:17:41.154Z,11.26
2022-10-15T06:20:09.957Z,11.25
2022-10-15T06:25:11.265Z,11.25
2022-10-15T06:27:39.473Z,11.25
2022-10-15T06:30:09.229Z,11.25
2022-10-15T06:32:37.519Z,11.31
2022-10-15T06:35:06.290Z,11.39
2022-10-15T06:37:35.133Z,11.48
2022-10-15T06:40:03.762Z,11.59
2022-10-15T06:42:32.346Z,11.70
2022-10-15T06:45:00.754Z,11.81
2022-10-15T06:47:29.194Z,11.95
2022-10-15T06:49:57.387Z,12.08
2022-10-15T06:52:25.649Z,12.19
2022-10-15T06:54:53.821Z,12.33
2022-10-15T06:57:25.804Z,12.50
2022-10-15T06:59:55.703Z,12.70
2022-10-15T07:02:25.243Z,12.93
2022-10-15T07:04:53.837Z,13.17
2022-10-15T07:07:23.162Z,13.41
2022-10-15T07:09:53.820Z,13.61
2022-10-15T07:12:22.658Z,13.75
2022-10-15T07:14:51.286Z,13.84
2022-10-15T07:17:19.474Z,13.93
2022-10-15T07:19:47.831Z,14.00
2022-10-15T07:22:16.037Z,14.06
2022-10-15T07:24:44.222Z,14.11
2022-10-15T07:27:19.628Z,14.18
2022-10-15T07:29:48.128Z,14.24
2022-10-15T07:32:17.433Z,14.30
2022-10-15T07:34:45.608Z,14.36
2022-10-15T07:37:13.762Z,14.41
2022-10-15T07:39:42.011Z,14.48
2022-10-15T07:42:10.403Z,14.55
2022-10-15T07:44:38.582Z,14.66
2022-10-15T07:47:11.591Z,14.74
2022-10-15T07:49:39.767Z,14.81
2022-10-15T07:52:10.706Z,14.88
2022-10-15T07:54:39.286Z,14.93
2022-10-15T07:57:08.016Z,15.02
2022-10-15T07:59:36.386Z,15.11
2022-10-15T08:02:04.636Z,15.19
2022-10-15T08:04:35.259Z,15.27
2022-10-15T08:07:05.775Z,15.35
2022-10-15T08:09:36.560Z,15.46
2022-10-15T08:12:07.200Z,15.56
2022-10-15T08:14:37.043Z,15.66
2022-10-15T08:17:06.967Z,15.80
2022-10-15T08:19:35.248Z,15.94
2022-10-15T08:22:04.117Z,16.10
2022-10-15T08:24:32.335Z,16.26
2022-10-15T08:27:00.542Z,16.38
2022-10-15T08:29:28.758Z,16.51
2022-10-15T08:31:57.002Z,16.63
2022-10-15T08:34:25.372Z,16.72
2022-10-15T08:36:53.675Z,16.79
2022-10-15T08:39:21.952Z,16.88
2022-10-15T08:42:14.729Z,16.97
2022-10-15T08:44:52.473Z,17.05
2022-10-15T08:47:39.854Z,17.17
2022-10-15T08:50:38.664Z,17.31
2022-10-15T08:53:13.373Z,17.41
2022-10-15T08:55:45.982Z,17.47
2022-10-15T08:58:21.530Z,17.50
2022-10-15T09:01:13.551Z,17.52
2022-10-15T09:04:08.059Z,17.55
2022-10-15T09:06:38.967Z,17.59
2022-10-15T09:09:32.259Z,17.69
2022-10-15T09:12:25.432Z,17.82
2022-10-15T09:14:58.659Z,17.92
2022-10-15T09:17:32.803Z,17.94
2022-10-15T09:20:06.109Z,17.96
2022-10-15T09:22:36.316Z,17.99
2022-10-15T09:25:16.486Z,18.03
2022-10-15T09:27:48.697Z,18.12
2022-10-15T09:30:35.854Z,18.25
2022-10-15T09:33:15.510Z,18.38
2022-10-15T09:36:06.913Z,18.50
2022-10-15T09:38:54.602Z,18.65
2022-10-15T09:42:09.814Z,18.89
2022-10-15T09:44:42.044Z,19.07
2022-10-15T09:47:29.382Z,19.20
2022-10-15T09:50:03.981Z,19.43
2022-10-15T09:53:03.298Z,19.68
2022-10-15T09:55:42.005Z,19.94
2022-10-15T09:58:16.497Z,20.13
2022-10-15T10:01:16.691Z,20.32
2022-10-15T10:03:45.006Z,20.55
2022-10-15T10:06:14.854Z,20.60
2022-10-15T10:08:58.145Z,20.79
2022-10-15T10:11:27.903Z,20.89
2022-10-15T10:14:01.028Z,20.81
2022-10-15T10:16:31.470Z,20.63
2022-10-15T10:19:22.325Z,20.46
2022-10-15T10:21:50.684Z,20.26
2022-10-15T10:24:21.102Z,20.17
2022-10-15T10:26:49.358Z,20.21
2022-10-15T10:29:36.562Z,20.31
2022-10-15T10:32:21.634Z,20.52
2022-10-15T10:34:52.672Z,20.81
2022-10-15T10:37:22.710Z,21.10
2022-10-15T10:40:00.897Z,21.36
2022-10-15T10:42:34.871Z,21.51
2022-10-15T10:45:19.998Z,21.58
2022-10-15T10:47:48.410Z,21.68
2022-10-15T10:50:30.364Z,21.79
2022-10-15T10:53:00.319Z,22.02
2022-10-15T10:55:39.136Z,22.23
2022-10-15T10:58:16.240Z,22.41
2022-10-15T11:00:47.210Z,22.38
2022-10-15T11:03:32.876Z,22.40
2022-10-15T11:06:22.976Z,22.44
2022-10-15T11:09:17.220Z,22.36
2022-10-15T11:12:23.342Z,22.49
2022-10-15T11:15:03.400Z,22.65
2022-10-15T11:17:34.637Z,22.73
2022-10-15T11:20:40.004Z,22.82
2022-10-15T11:23:31.165Z,22.92
2022-10-15T11:26:21.257Z,23.10
2022-10-15T11:29:14.230Z,23.25
2022-10-15T11:32:14.688Z,23.43
2022-10-15T11:35:17.115Z,23.53
2022-10-15T11:38:00.507Z,23.66
2022-10-15T11:41:05.610Z,23.78
2022-10-15T11:43:52.454Z,23.87
2022-10-15T11:46:56.075Z,23.87
2022-10-15T11:49:39.364Z,23.57
2022-10-15T11:52:45.045Z,23.26
2022-10-15T11:55:25.537Z,23.02
2022-10-15T11:58:02.586Z,22.81
2022-10-15T12:00:49.278Z,22.60
2022-10-15T12:03:25.866Z,22.42
2022-10-15T12:06:03.974Z,22.37
2022-10-15T12:08:38.910Z,22.48
2022-10-15T12:11:21.381Z,22.59
2022-10-15T12:14:20.717Z,22.61
2022-10-15T12:17:15.861Z,22.55
2022-10-15T12:20:13.906Z,22.43
2022-10-15T12:22:48.089Z,22.54
2022-10-15T12:25:34.766Z,22.72
2022-10-15T12:28:13.586Z,22.76
2022-10-15T12:30:53.974Z,22.75
2022-10-15T12:33:28.945Z,22.85
2022-10-15T12:36:06.414Z,22.94
2022-10-15T12:38:38.656Z,23.01
2022-10-15T12:41:10.578Z,22.94
2022-10-15T12:43:43.352Z,22.69
2022-10-15T12:46:13.513Z,22.52
2022-10-15T12:48:44.442Z,22.45
2022-10-15T12:51:21.486Z,22.54
2022-10-15T12:53:59.084Z,22.75
2022-10-15T12:56:41.966Z,22.85
2022-10-15T12:59:33.567Z,22.88
2022-10-15T13:02:03.681Z,22.85
2022-10-15T13:04:39.671Z,22.77
2022-10-15T13:07:14.405Z,22.62
2022-10-15T13:09:42.703Z,22.48
2022-10-15T13:12:24.189Z,22.35
2022-10-15T13:15:00.658Z,22.19
2022-10-15T13:17:28.901Z,22.05
2022-10-15T13:20:08.354Z,21.92
2022-10-15T13:22:37.409Z,21.77
2022-10-15T13:25:16.507Z,21.65
2022-10-15T13:27:44.763Z,21.54
2022-10-15T13:30:16.570Z,21.45
2022-10-15T13:32:56.567Z,21.34
2022-10-15T13:35:33.342Z,21.27
2022-10-15T13:38:05.274Z,21.20
2022-10-15T13:40:33.658Z,21.14
2022-10-15T13:43:06.263Z,21.09
2022-10-15T13:45:34.709Z,21.03
2022-10-15T13:48:12.513Z,20.97
2022-10-15T13:50:40.801Z,20.91
2022-10-15T13:53:32.050Z,20.83
2022-10-15T13:56:03.637Z,20.76
2022-10-15T13:58:34.727Z,20.72
2022-10-15T14:01:08.674Z,20.68
2022-10-15T14:03:39.452Z,20.61
2022-10-15T14:06:29.429Z,20.53
2022-10-15T14:09:27.300Z,20.47
2022-10-15T14:11:59.182Z,20.44
2022-10-15T14:14:38.044Z,20.42
2022-10-15T14:17:09.198Z,20.38
2022-10-15T14:19:39.553Z,20.27
2022-10-15T14:22:07.882Z,20.13
2022-10-15T14:24:40.303Z,19.99
2022-10-15T14:27:15.910Z,19.85
2022-10-15T14:29:47.811Z,19.71
2022-10-15T14:32:46.297Z,19.55
2022-10-15T14:35:37.154Z,19.38
2022-10-15T14:38:16.862Z,19.23
2022-10-15T14:41:22.735Z,19.10
2022-10-15T14:44:12.912Z,18.97
2022-10-15T14:46:47.101Z,18.85
2022-10-15T14:49:36.074Z,18.74
2022-10-15T14:52:15.294Z,18.61
2022-10-15T14:55:05.612Z,18.49
2022-10-15T14:57:39.997Z,18.35
2022-10-15T15:00:34.285Z,18.23
2022-10-15T15:03:06.247Z,18.08
2022-10-15T15:05:55.270Z,17.97
2022-10-15T15:08:25.326Z,17.85
2022-10-15T15:10:56.627Z,17.73
2022-10-15T15:13:27.522Z,17.62
2022-10-15T15:15:56.354Z,17.49
2022-10-15T15:18:25.101Z,17.36
2022-10-15T15:20:53.347Z,17.25
2022-10-15T15:23:25.858Z,17.15
2022-10-15T15:25:55.204Z,17.02
2022-10-15T15:28:26.004Z,16.92
2022-10-15T15:31:01.734Z,16.84
2022-10-15T15:33:30.027Z,16.77
2022-10-15T15:36:12.009Z,16.69
2022-10-15T15:38:40.674Z,16.62
2022-10-15T15:41:16.396Z,16.54
2022-10-15T15:43:45.950Z,16.47
2022-10-15T15:46:15.236Z,16.40
2022-10-15T15:48:43.509Z,16.33
2022-10-15T15:51:11.758Z,16.25
2022-10-15T15:53:40.015Z,16.15
2022-10-15T15:56:08.141Z,16.06
2022-10-15T15:58:36.361Z,15.98
2022-10-15T16:01:04.576Z,15.92
2022-10-15T16:03:32.738Z,15.85
2022-10-15T16:06:00.920Z,15.78
2022-10-15T16:08:29.135Z,15.72
2022-10-15T16:11:04.575Z,15.66
2022-10-15T16:13:33.613Z,15.61
2022-10-15T16:16:01.864Z,15.57
2022-10-15T16:18:30.546Z,15.52
2022-10-15T16:20:58.978Z,15.49
2022-10-15T16:23:27.155Z,15.44
2022-10-15T16:25:57.502Z,15.39
2022-10-15T16:28:25.791Z,15.34
2022-10-15T16:30:54.073Z,15.29
2022-10-15T16:33:22.234Z,15.24
2022-10-15T16:35:53.967Z,15.19
2022-10-15T16:38:22.144Z,15.15
2022-10-15T16:40:50.287Z,15.11
2022-10-15T16:43:18.417Z,15.09
2022-10-15T16:45:56.096Z,15.07
2022-10-15T16:48:26.320Z,15.04
2022-10-15T16:51:06.750Z,15.03
2022-10-15T16:53:37.836Z,15.01
2022-10-15T16:56:13.547Z,14.99
2022-10-15T16:58:42.806Z,14.97
2022-10-15T17:01:14.330Z,14.95
2022-10-15T17:03:43.610Z,14.93
2022-10-15T17:06:15.136Z,14.91
2022-10-15T17:08:55.550Z,14.89
2022-10-15T17:11:38.163Z,14.87
2022-10-15T17:14:10.814Z,14.86
2022-10-15T17:16:42.062Z,14.84
2022-10-15T17:19:11.710Z,14.83
2022-10-15T17:21:42.636Z,14.82
2022-10-15T17:24:14.319Z,14.80
2022-10-15T17:26:44.049Z,14.79
2022-10-15T17:29:27.732Z,14.77
2022-10-15T17:31:59.162Z,14.75
2022-10-15T17:34:28.257Z,14.73
2022-10-15T17:36:56.996Z,14.73
2022-10-15T17:39:25.183Z,14.71
2022-10-15T17:41:53.447Z,14.68
2022-10-15T17:44:21.602Z,14.67
2022-10-15T17:46:50.695Z,14.65
2022-10-15T17:49:19.920Z,14.62
2022-10-15T17:51:48.164Z,14.58
2022-10-15T17:54:16.404Z,14.56
2022-10-15T17:56:46.105Z,14.53
2022-10-15T17:59:14.270Z,14.50
2022-10-15T18:02:00.299Z,14.49
2022-10-15T18:04:32.249Z,14.47
2022-10-15T18:07:00.421Z,14.46
2022-10-15T18:09:28.683Z,14.46
2022-10-15T18:12:00.790Z,14.45
2022-10-15T18:14:30.365Z,14.43
2022-10-15T18:16:58.593Z,14.41
2022-10-15T18:19:27.059Z,14.39
2022-10-15T18:21:56.315Z,14.36
2022-10-15T18:24:25.116Z,14.35
2022-10-15T18:26:53.602Z,14.34
2022-10-15T18:29:22.758Z,14.33
2022-10-15T18:31:57.123Z,14.33
2022-10-15T18:34:28.103Z,14.32
2022-10-15T18:36:56.845Z,14.30
2022-10-15T18:39:26.748Z,14.28
2022-10-15T18:41:55.348Z,14.25
2022-10-15T18:44:24.743Z,14.22
2022-10-15T18:46:52.962Z,14.17
2022-10-15T18:49:21.890Z,14.14
2022-10-15T18:51:54.351Z,14.11
2022-10-15T18:54:22.738Z,14.09
2022-10-15T18:56:52.951Z,14.08
2022-10-15T18:59:22.725Z,14.07
2022-10-15T19:01:54.329Z,14.05
2022-10-15T19:04:26.189Z,14.01
2022-10-15T19:06:55.321Z,13.95
2022-10-15T19:09:26.506Z,13.89
2022-10-15T19:11:57.061Z,13.83
2022-10-15T19:14:30.699Z,13.77
2022-10-15T19:16:58.974Z,13.72
2022-10-15T19:19:28.954Z,13.68
2022-10-15T19:21:58.560Z,13.63
2022-10-15T19:24:27.647Z,13.61
2022-10-15T19:26:56.068Z,13.58
2022-10-15T19:29:24.548Z,13.57
2022-10-15T19:31:54.926Z,13.56
2022-10-15T19:34:23.771Z,13.53
2022-10-15T19:36:52.077Z,13.49
2022-10-15T19:39:23.407Z,13.46
2022-10-15T19:41:53.300Z,13.43
2022-10-15T19:44:26.209Z,13.40
2022-10-15T19:46:58.138Z,13.38
2022-10-15T19:49:26.387Z,13.34
2022-10-15T19:51:55.869Z,13.29
2022-10-15T19:56:53.429Z,13.24
2022-10-15T19:59:22.048Z,13.25
2022-10-15T20:01:50.235Z,13.27
2022-10-15T20:04:20.868Z,13.28
2022-10-15T20:06:52.847Z,13.27
2022-10-15T20:09:21.270Z,13.26
2022-10-15T20:11:49.599Z,13.25
2022-10-15T20:14:18.275Z,13.22
2022-10-15T20:16:46.470Z,13.19
2022-10-15T20:19:14.741Z,13.15
2022-10-15T20:21:42.986Z,13.11
2022-10-15T20:24:11.197Z,13.06
2022-10-15T20:26:39.416Z,12.99
2022-10-15T20:29:07.597Z,12.92
2022-10-15T20:31:36.282Z,12.83
2022-10-15T20:34:04.423Z,12.73
2022-10-15T20:36:33.158Z,12.63
2022-10-15T20:39:01.691Z,12.54
2022-10-15T20:41:31.894Z,12.46
2022-10-15T20:44:00.173Z,12.39
2022-10-15T20:46:44.029Z,12.29
2022-10-15T20:49:16.363Z,12.18
2022-10-15T20:51:45.170Z,12.07
2022-10-15T20:54:15.788Z,11.95
2022-10-15T20:56:44.048Z,11.86
2022-10-15T20:59:13.162Z,11.76
2022-10-15T21:01:41.421Z,11.64
2022-10-15T21:04:10.164Z,11.53
2022-10-15T21:06:38.691Z,11.46
2022-10-15T21:09:07.461Z,11.40
2022-10-15T21:11:46.113Z,11.35
2022-10-15T21:14:15.003Z,11.27
2022-10-15T21:16:43.227Z,11.21
2022-10-15T21:19:11.491Z,11.14
2022-10-15T21:21:39.782Z,11.10
2022-10-15T21:24:07.906Z,11.05
2022-10-15T21:26:36.107Z,10.93
2022-10-15T21:29:04.406Z,10.82
2022-10-15T21:31:32.789Z,10.76
2022-10-15T21:34:03.876Z,10.72
2022-10-15T21:36:32.238Z,10.69
2022-10-15T21:39:03.901Z,10.62
2022-10-15T21:41:33.994Z,10.54
2022-10-15T21:44:04.278Z,10.47
2022-10-15T21:46:33.723Z,10.43
2022-10-15T21:49:04.218Z,10.38
2022-10-15T21:51:34.023Z,10.32
2022-10-15T21:54:04.374Z,10.23
2022-10-15T21:56:33.707Z,10.18
2022-10-15T21:59:02.489Z,10.13
2022-10-15T22:01:33.774Z,10.07
2022-10-15T22:04:07.954Z,10.00
2022-10-15T22:06:39.976Z,9.91
2022-10-15T22:09:10.649Z,9.84
2022-10-15T22:11:41.767Z,9.77
2022-10-15T22:14:14.595Z,9.68
2022-10-15T22:16:43.339Z,9.62
2022-10-15T22:19:14.115Z,9.57
2022-10-15T22:21:42.754Z,9.54
2022-10-15T22:24:17.167Z,9.49
2022-10-15T22:26:48.474Z,9.46
2022-10-15T22:29:25.641Z,9.44
2022-10-15T22:31:55.269Z,9.42
2022-10-15T22:34:24.415Z,9.41
2022-10-15T22:36:52.876Z,9.39
2022-10-15T22:39:21.046Z,9.35
2022-10-15T22:41:49.436Z,9.31
2022-10-15T22:44:21.581Z,9.26
2022-10-15T22:46:50.916Z,9.21
2022-10-15T22:49:21.739Z,9.17
2022-10-15T22:51:50.679Z,9.13
2022-10-15T22:54:22.142Z,9.12
2022-10-15T22:56:51.466Z,9.15
2022-10-15T22:59:20.893Z,9.24
2022-10-15T23:01:49.139Z,9.34
2022-10-15T23:04:17.462Z,9.41
2022-10-15T23:06:45.865Z,9.42
2022-10-15T23:09:18.219Z,9.48
2022-10-15T23:11:47.573Z,9.55
2022-10-15T23:14:17.326Z,9.63
2022-10-15T23:16:47.927Z,9.69
2022-10-15T23:19:19.699Z,9.69
2022-10-15T23:21:53.400Z,9.62
2022-10-15T23:24:24.017Z,9.53
2022-10-15T23:26:52.543Z,9.46
2022-10-15T23:29:24.037Z,9.42
2022-10-15T23:31:53.970Z,9.40
2022-10-15T23:34:25.368Z,9.38
2022-10-15T23:36:53.922Z,9.36
2022-10-15T23:39:25.642Z,9.34
2022-10-15T23:41:55.233Z,9.34
2022-10-15T23:44:27.041Z,9.33
2022-10-15T23:46:55.377Z,9.34
2022-10-15T23:49:23.603Z,9.36
2022-10-15T23:51:51.844Z,9.38
2022-10-15T23:54:20.184Z,9.40
2022-10-15T23:56:48.462Z,9.46
2022-10-15T23:59:18.381Z,9.51
